Nearby METAR Reports

 

KGRB - Ashwaubenon, Wisconsin, USA
Distance from station: NW 5mi, 8km
Updated: Sat, 17-Feb-2018 5:38pm CST
Mostly cloudy
Mostly cloudy
 Wind from SW
Wind: SW 9 mph , 15 km/h
Temperature: 27°F , -3°C
Wind Chill: 18°F , -8°C
Dew Point: 21°F , -6°C
Humidity: 80%
Barometer: 29.90 inHg , 1012.5 hPa
Clouds: Mostly cloudy
Visibility: 10 miles , 16 km
Cloud details: Mostly cloudy 1700 ft
2018/02/17 23:38 KGRB 172338Z 23008KT 10SM BKN017 M03/M06 A2990 RMK AO2 T10331061
KATW - Appleton/Outagam, Wisconsin, USA
Distance from station: WSW 26mi, 42km
Updated: Sat, 17-Feb-2018 4:45pm CST
Mostly cloudy
Mostly cloudy
 Wind from SW
Wind: SW 10 mph , 17 km/h
Temperature: 27°F , -3°C
Wind Chill: 18°F , -8°C
Dew Point: 21°F , -6°C
Humidity: 80%
Barometer: 29.87 inHg , 1011.5 hPa
Clouds: Mostly cloudy
Visibility: 10 miles , 16 km
Cloud details: Partly cloudy 900 ft
Mostly cloudy 1900 ft
2018/02/17 22:45 KATW 172245Z 23009KT 10SM SCT009 BKN019 M03/M06 A2987
 
KMTW - Manitowac Muni, Wisconsin, USA
Distance from station: SE 29mi, 47km
Updated: Sat, 17-Feb-2018 4:56pm CST
Overcast
Overcast
 Wind from SW
Wind: SW 12 mph , 19 km/h
Temperature: 27°F , -3°C
Wind Chill: 16°F , -9°C
Dew Point: 23°F , -5°C
Humidity: 86%
Barometer: 29.91 inHg , 1012.9 hPa
Clouds: Overcast
Visibility: 9 miles , 14 km
Cloud details: Mostly cloudy 3500 ft
Overcast 4500 ft
2018/02/17 22:56 KMTW 172256Z AUTO 23010KT 9SM UP BKN035 OVC045 M03/M05 A2991 RMK AO2 UPB38SNE38 SLP150 P0000 T10281050 FZRANO
KOCQ - Oconto, Wisconsin, USA
Distance from station: NNE 30mi, 49km
Updated: Sat, 17-Feb-2018 5:35pm CST
Mostly cloudy
Mostly cloudy
 Wind from WSW
Wind: WSW 8 mph , 13 km/h
Temperature: 25°F , -4°C
Wind Chill: 16°F , -9°C
Dew Point: 21°F , -6°C
Humidity: 86%
Barometer: 29.87 inHg , 1011.5 hPa
Clouds: Mostly cloudy
Visibility: 10 miles , 16 km
Cloud details: Mostly cloudy 1500 ft
2018/02/17 23:35 KOCQ 172335Z AUTO 24007KT 10SM BKN015 M04/M06 A2987 RMK AO1 T10371063
 
KEZS - Shawano Muni, Wisconsin, USA
Distance from station: NW 35mi, 56km
Updated: Sat, 17-Feb-2018 5:35pm CST
Overcast
Overcast
 Wind from SW
Wind: SW 6 mph , 9 km/h
Temperature: 28°F , -2°C
Wind Chill: 21°F , -6°C
Dew Point: 23°F , -5°C
Humidity: 80%
Barometer: 29.88 inHg , 1011.9 hPa
Clouds: Overcast
Visibility: 10 miles , 16 km
Cloud details: Overcast 1700 ft
2018/02/17 23:35 KEZS 172335Z AUTO 23005KT 10SM OVC017 M02/M05 A2988 RMK AO2 T10221053
KCLI - Clintonville, Wisconsin, USA
Distance from station: WNW 36mi, 58km
Updated: Sat, 17-Feb-2018 5:35pm CST
Overcast
Overcast
 Wind from WSW
Wind: WSW 8 mph , 13 km/h
Temperature: 27°F , -3°C
Wind Chill: 19°F , -7°C
Dew Point: 21°F , -6°C
Humidity: 80%
Barometer: 29.89 inHg , 1012.2 hPa
Clouds: Overcast
Visibility: 10 miles , 16 km
Cloud details: Overcast 1700 ft
2018/02/17 23:35 KCLI 172335Z AUTO 24007KT 10SM OVC017 M03/M06 A2989 RMK AO2 T10281065
 
KOSH - Oshkosh, Wisconsin, USA
Distance from station: SW 41mi, 66km
Updated: Sat, 17-Feb-2018 5:36pm CST
Overcast
Overcast
 Wind from W
Wind: W 7 mph , 11 km/h
Temperature: 27°F , -3°C
Wind Chill: 19°F , -7°C
Dew Point: 21°F , -6°C
Humidity: 80%
Barometer: 29.93 inHg , 1013.5 hPa
Clouds: Overcast
Visibility: 10 miles , 16 km
Cloud details: Mostly cloudy 1700 ft
Mostly cloudy 4400 ft
Overcast 9500 ft
2018/02/17 23:36 KOSH 172336Z 26006KT 10SM BKN017 BKN044 OVC095 M03/M06 A2993 RMK AO2 T10331056
KSUE - Sturgeon Bay, Wisconsin, USA
Distance from station: NE 42mi, 68km
Updated: Sat, 17-Feb-2018 5:38pm CST
Partly cloudy
Partly cloudy
 Wind from SW
Wind: SW 16 mph , 26 km/h
Temperature: 25°F , -4°C
Wind Chill: 12°F , -11°C
Dew Point: 21°F , -6°C
Humidity: 86%
Barometer: 29.87 inHg , 1011.5 hPa
Clouds: Partly cloudy
Visibility: 10 miles , 16 km
Cloud details: Few Clouds 1200 ft
Partly cloudy 11000 ft
2018/02/17 23:38 KSUE 172338Z AUTO 23014KT 10SM FEW012 SCT110 M04/M06 A2987 RMK AO2 SNE01 P0000 FZRANO
 
KSBM - Sheboygan, Wisconsin, USA
Distance from station: SSE 46mi, 75km
Updated: Sat, 17-Feb-2018 5:18pm CST
Mist, Overcast
Mist, Overcast
 Wind from SSW
Wind: SSW 6 mph , 9 km/h
Temperature: 27°F , -3°C
Wind Chill: 20°F , -7°C
Dew Point: 25°F , -4°C
Humidity: 93%
Barometer: 29.91 inHg , 1012.9 hPa
Summary: Mist
Clouds: Overcast
Visibility: 4 miles , 6 km
Cloud details: Partly cloudy 3600 ft
Partly cloudy 4700 ft
Overcast 9500 ft
2018/02/17 23:18 KSBM 172318Z AUTO 21005KT 4SM BR SCT036 SCT047 OVC095 M03/M04 A2991 RMK AO2 SNE15 P0000 T10281039 TSNO
KPCZ - Waupaca, Wisconsin, USA
Distance from station: W 48mi, 77km
Updated: Sat, 17-Feb-2018 5:35pm CST
Overcast
Overcast
 Wind from SW
Wind: SW 7 mph , 11 km/h
Temperature: 28°F , -2°C
Wind Chill: 21°F , -6°C
Dew Point: 23°F , -5°C
Humidity: 80%
Barometer: 29.91 inHg , 1012.9 hPa
Clouds: Overcast
Visibility: 10 miles , 16 km
Cloud details: Overcast 1800 ft
2018/02/17 23:35 KPCZ 172335Z AUTO 23006KT 10SM OVC018 M02/M05 A2991 RMK AO2 T10161052